createdAt,value
2023-03-02T00:04:38.957Z,6.10
2023-03-02T00:09:43.181Z,5.93
2023-03-02T00:14:46.398Z,6.13
2023-03-02T00:19:51.063Z,6.30
2023-03-02T00:24:54.259Z,5.93
2023-03-02T00:29:57.552Z,6.37
2023-03-02T00:35:02.231Z,7.03
2023-03-02T00:40:07.493Z,6.47
2023-03-02T00:45:11.384Z,5.70
2023-03-02T00:50:16.078Z,6.90
2023-03-02T00:55:19.288Z,6.17
2023-03-02T01:00:23.281Z,6.73
2023-03-02T01:05:28.017Z,6.93
2023-03-02T01:10:32.845Z,7.13
2023-03-02T01:15:36.428Z,6.33
2023-03-02T01:20:41.137Z,6.67
2023-03-02T01:25:44.307Z,6.30
2023-03-02T01:30:48.978Z,6.47
2023-03-02T01:35:53.715Z,7.00
2023-03-02T01:40:57.663Z,7.63
2023-03-02T01:46:04.108Z,7.17
2023-03-02T01:51:10.584Z,7.27
2023-03-02T01:56:17.173Z,7.33
2023-03-02T02:01:20.549Z,6.70
2023-03-02T02:06:27.584Z,7.53
2023-03-02T02:11:31.507Z,7.13
2023-03-02T02:16:36.547Z,7.10
2023-03-02T02:21:41.259Z,6.63
2023-03-02T02:26:49.590Z,6.50
2023-03-02T02:31:57.565Z,7.20
2023-03-02T02:37:07.507Z,7.03
2023-03-02T02:42:16.608Z,6.50
2023-03-02T02:47:24.442Z,7.03
2023-03-02T02:52:29.478Z,6.90
2023-03-02T02:57:34.127Z,7.60
2023-03-02T03:02:45.613Z,7.70
2023-03-02T03:07:48.736Z,7.57
2023-03-02T03:12:53.730Z,7.10
2023-03-02T03:17:57.637Z,8.07
2023-03-02T03:23:00.956Z,8.00
2023-03-02T03:28:05.869Z,7.23
2023-03-02T03:33:11.550Z,7.83
2023-03-02T03:38:14.980Z,8.90
2023-03-02T03:43:19.569Z,8.60
2023-03-02T03:48:22.805Z,7.83
2023-03-02T03:53:26.852Z,9.07
2023-03-02T03:58:31.999Z,10.83
2023-03-02T04:03:35.556Z,8.67
2023-03-02T04:08:38.840Z,9.63
2023-03-02T04:13:43.692Z,9.80
2023-03-02T04:18:47.068Z,9.83
2023-03-02T04:23:50.245Z,10.23
2023-03-02T04:28:54.910Z,9.00
2023-03-02T04:33:58.379Z,9.20
2023-03-02T04:39:02.134Z,9.77
2023-03-02T04:44:17.919Z,9.10
2023-03-02T04:49:21.906Z,8.97
2023-03-02T04:54:27.321Z,9.27
2023-03-02T04:59:32.125Z,9.33
2023-03-02T05:04:40.565Z,9.13
2023-03-02T05:09:44.181Z,9.37
2023-03-02T05:14:50.386Z,9.50
2023-03-02T05:19:54.655Z,8.93
2023-03-02T05:25:00.419Z,9.50
2023-03-02T05:30:06.401Z,8.73
2023-03-02T05:35:10.498Z,8.23
2023-03-02T05:40:16.443Z,8.30
2023-03-02T05:45:24.606Z,6.90
2023-03-02T05:50:27.972Z,7.50
2023-03-02T05:55:31.630Z,7.50
2023-03-02T06:00:36.675Z,7.00
2023-03-02T06:05:44.684Z,8.00
2023-03-02T06:10:50.869Z,7.90
2023-03-02T06:15:55.975Z,7.40
2023-03-02T06:20:59.863Z,6.73
2023-03-02T06:26:11.924Z,7.53
2023-03-02T06:31:16.637Z,7.30
2023-03-02T06:36:23.445Z,7.43
2023-03-02T06:41:26.770Z,7.20
2023-03-02T06:46:37.159Z,7.83
2023-03-02T06:51:40.742Z,7.27
2023-03-02T06:56:43.988Z,6.90
2023-03-02T07:01:50.616Z,6.57
2023-03-02T07:06:53.929Z,8.30
2023-03-02T07:12:06.665Z,7.37
2023-03-02T07:17:11.392Z,7.13
2023-03-02T07:22:14.655Z,6.57
2023-03-02T07:27:17.920Z,6.87
2023-03-02T07:32:23.003Z,7.53
2023-03-02T07:37:26.294Z,7.03
2023-03-02T07:42:29.681Z,7.57
2023-03-02T07:47:34.699Z,7.10
2023-03-02T07:52:38.600Z,8.00
2023-03-02T07:57:41.722Z,10.10
2023-03-02T08:02:46.409Z,9.33
2023-03-02T08:07:50.058Z,9.77
2023-03-02T08:12:53.780Z,10.07
2023-03-02T08:17:58.185Z,9.00
2023-03-02T08:23:02.725Z,9.73
2023-03-02T08:28:05.835Z,8.83
2023-03-02T08:33:10.496Z,9.53
2023-03-02T08:38:13.623Z,9.87
2023-03-02T08:43:16.959Z,10.43
2023-03-02T08:48:22.043Z,10.17
2023-03-02T08:53:25.700Z,10.73
2023-03-02T08:58:29.415Z,9.97
2023-03-02T09:03:33.899Z,10.13
2023-03-02T09:08:37.702Z,10.13
2023-03-02T09:13:40.897Z,10.77
2023-03-02T09:18:46.534Z,10.87
2023-03-02T09:23:53.750Z,12.17
2023-03-02T09:28:57.403Z,11.07
2023-03-02T09:34:02.073Z,11.13
2023-03-02T09:39:09.624Z,11.27
2023-03-02T09:44:27.921Z,11.97
2023-03-02T09:49:53.834Z,12.33
2023-03-02T09:55:01.755Z,12.03
2023-03-02T10:00:18.686Z,12.47
2023-03-02T10:05:26.395Z,10.60
2023-03-02T10:10:38.762Z,11.07
2023-03-02T10:15:50.258Z,11.30
2023-03-02T10:21:00.350Z,10.40
2023-03-02T10:26:15.925Z,10.73
2023-03-02T10:31:27.710Z,11.27
2023-03-02T10:36:38.672Z,10.33
2023-03-02T10:41:47.269Z,11.13
2023-03-02T10:46:51.388Z,11.33
2023-03-02T10:52:01.327Z,10.10
2023-03-02T10:57:06.984Z,9.90
2023-03-02T11:02:29.529Z,9.83
2023-03-02T11:07:34.144Z,9.77
2023-03-02T11:12:38.823Z,9.60
2023-03-02T11:17:45.675Z,10.20
2023-03-02T11:22:58.077Z,10.07
2023-03-02T11:28:07.000Z,8.93
2023-03-02T11:33:25.601Z,8.40
2023-03-02T11:38:35.648Z,9.37
2023-03-02T11:43:39.574Z,7.93
2023-03-02T11:48:47.374Z,8.30
2023-03-02T11:53:57.038Z,9.37
2023-03-02T11:59:04.992Z,8.60
2023-03-02T12:04:10.655Z,8.20
2023-03-02T12:09:35.829Z,7.77
2023-03-02T12:14:42.735Z,7.07
2023-03-02T12:19:46.536Z,8.00
2023-03-02T12:25:03.789Z,8.20
2023-03-02T12:30:26.282Z,6.87
2023-03-02T12:35:31.919Z,6.73
2023-03-02T12:40:54.172Z,7.60
2023-03-02T12:46:26.296Z,6.90
2023-03-02T12:51:31.824Z,6.57
2023-03-02T12:56:36.744Z,6.03
2023-03-02T13:01:40.193Z,6.90
2023-03-02T13:06:43.460Z,5.60
2023-03-02T13:11:49.844Z,6.30
2023-03-02T13:16:58.700Z,6.00
2023-03-02T13:22:02.184Z,6.43
2023-03-02T13:27:09.531Z,5.30
2023-03-02T13:32:18.866Z,6.77
2023-03-02T13:37:28.968Z,7.33
2023-03-02T13:42:39.745Z,7.43
2023-03-02T13:47:44.715Z,7.97
2023-03-02T13:52:48.004Z,7.57
2023-03-02T13:57:53.865Z,6.37
2023-03-02T14:02:57.243Z,6.27
2023-03-02T14:08:00.690Z,7.20
2023-03-02T14:13:08.582Z,7.30
2023-03-02T14:18:27.211Z,7.53
2023-03-02T14:23:30.543Z,7.00
2023-03-02T14:28:36.532Z,6.87
2023-03-02T14:33:39.656Z,7.07
2023-03-02T14:38:43.082Z,6.70
2023-03-02T14:43:47.716Z,6.57
2023-03-02T14:48:51.041Z,8.47
2023-03-02T14:53:57.043Z,6.80
2023-03-02T14:59:01.905Z,6.17
2023-03-02T15:04:05.222Z,6.27
2023-03-02T15:09:09.058Z,5.80
2023-03-02T15:14:13.823Z,6.50
2023-03-02T15:19:16.963Z,6.43
2023-03-02T15:24:22.233Z,6.27
2023-03-02T15:29:27.263Z,6.43
2023-03-02T15:34:30.459Z,6.77
2023-03-02T15:39:34.098Z,6.07
2023-03-02T15:44:38.810Z,6.87
2023-03-02T15:49:41.933Z,6.13
2023-03-02T15:54:45.226Z,6.77
2023-03-02T15:59:50.012Z,5.50
2023-03-02T16:04:54.207Z,6.17
2023-03-02T16:09:57.433Z,6.10
2023-03-02T16:15:01.956Z,6.00
2023-03-02T16:20:05.607Z,6.03
2023-03-02T16:25:09.566Z,5.53
2023-03-02T16:30:15.775Z,7.00
2023-03-02T16:35:19.828Z,5.40
2023-03-02T16:40:23.827Z,5.37
2023-03-02T16:45:28.416Z,6.17
2023-03-02T16:50:31.763Z,5.70
2023-03-02T16:55:35.132Z,8.60
2023-03-02T17:00:39.914Z,6.30
2023-03-02T17:05:43.621Z,13.33
2023-03-02T17:10:46.745Z,17.57
2023-03-02T17:15:54.828Z,17.13
2023-03-02T17:20:59.768Z,18.10
2023-03-02T17:26:03.958Z,18.53
2023-03-02T17:31:08.712Z,19.93
2023-03-02T17:36:12.402Z,20.07
2023-03-02T17:41:15.531Z,19.17
2023-03-02T17:46:23.580Z,19.60
2023-03-02T17:51:28.247Z,20.77
2023-03-02T17:56:32.826Z,18.53
2023-03-02T18:01:37.590Z,20.10
2023-03-02T18:06:40.991Z,23.93
2023-03-02T18:11:45.205Z,21.50
2023-03-02T18:16:49.778Z,21.50
2023-03-02T18:21:53.710Z,21.77
2023-03-02T18:26:57.664Z,21.57
2023-03-02T18:32:02.237Z,21.33
2023-03-02T18:37:05.622Z,21.63
2023-03-02T18:42:10.523Z,21.73
2023-03-02T18:47:19.115Z,22.03
2023-03-02T18:52:29.280Z,23.63
2023-03-02T18:57:34.083Z,21.87
2023-03-02T19:02:39.178Z,22.20
2023-03-02T19:07:42.988Z,21.13
2023-03-02T19:12:46.447Z,21.83
2023-03-02T19:17:52.283Z,21.53
2023-03-02T19:22:55.883Z,21.67
2023-03-02T19:27:59.086Z,22.00
2023-03-02T19:33:06.075Z,20.93
2023-03-02T19:38:10.734Z,21.07
2023-03-02T19:43:14.660Z,21.17
2023-03-02T19:48:19.331Z,23.50
2023-03-02T19:53:23.771Z,21.30
2023-03-02T19:58:28.469Z,22.97
2023-03-02T20:03:34.090Z,23.43
2023-03-02T20:08:37.237Z,23.03
2023-03-02T20:13:41.294Z,24.10
2023-03-02T20:18:46.001Z,24.07
2023-03-02T20:23:50.193Z,23.10
2023-03-02T20:28:55.648Z,24.67
2023-03-02T20:34:00.509Z,24.93
2023-03-02T20:39:09.292Z,27.20
2023-03-02T20:44:14.804Z,25.57
2023-03-02T20:49:22.082Z,24.60
2023-03-02T20:54:27.660Z,23.90
2023-03-02T20:59:31.229Z,24.50
2023-03-02T21:04:36.730Z,24.17
2023-03-02T21:09:40.408Z,25.63
2023-03-02T21:14:43.797Z,26.73
2023-03-02T21:19:48.260Z,29.90
2023-03-02T21:24:52.947Z,29.33
2023-03-02T21:29:56.509Z,24.83
2023-03-02T21:35:02.938Z,26.80
2023-03-02T21:40:08.284Z,27.27
2023-03-02T21:45:13.521Z,26.00
2023-03-02T21:50:23.111Z,27.10
2023-03-02T21:55:27.368Z,26.20
2023-03-02T22:00:33.745Z,26.57
2023-03-02T22:05:39.256Z,28.80
2023-03-02T22:10:45.401Z,28.13
2023-03-02T22:15:51.080Z,29.53
2023-03-02T22:20:58.807Z,26.80
2023-03-02T22:26:14.252Z,26.87
2023-03-02T22:31:21.632Z,30.47
2023-03-02T22:36:26.889Z,26.43
2023-03-02T22:41:30.512Z,30.13
2023-03-02T22:46:37.110Z,28.37
2023-03-02T22:51:41.726Z,25.37
2023-03-02T22:56:48.142Z,22.37
2023-03-02T23:01:52.497Z,22.70
2023-03-02T23:07:00.118Z,21.53
2023-03-02T23:12:10.878Z,20.30
2023-03-02T23:17:19.899Z,20.43
2023-03-02T23:22:28.594Z,17.63
2023-03-02T23:27:31.802Z,20.10
2023-03-02T23:32:35.255Z,20.17
2023-03-02T23:37:40.276Z,19.57
2023-03-02T23:42:43.363Z,18.87
2023-03-02T23:47:46.560Z,18.20
2023-03-02T23:52:51.140Z,17.47
2023-03-02T23:57:54.324Z,16.77
